createdAt,value
2022-10-08T00:01:53.541Z,20.33
2022-10-08T00:03:56.829Z,14.20
2022-10-08T00:05:59.808Z,13.67
2022-10-08T00:08:02.223Z,16.10
2022-10-08T00:10:06.367Z,11.57
2022-10-08T00:12:08.444Z,16.63
2022-10-08T00:14:10.473Z,10.60
2022-10-08T00:16:15.534Z,15.93
2022-10-08T00:18:17.730Z,13.07
2022-10-08T00:20:20.076Z,11.10
2022-10-08T00:22:21.987Z,13.50
2022-10-08T00:24:23.932Z,13.77
2022-10-08T00:26:27.582Z,14.33
2022-10-08T00:28:29.615Z,16.70
2022-10-08T00:30:31.731Z,16.67
2022-10-08T00:32:34.836Z,14.40
2022-10-08T00:34:36.779Z,12.20
2022-10-08T00:36:40.110Z,16.70
2022-10-08T00:38:42.070Z,16.90
2022-10-08T00:40:44.689Z,17.63
2022-10-08T00:42:46.792Z,13.33
2022-10-08T00:44:58.518Z,17.87
2022-10-08T00:47:00.783Z,13.23
2022-10-08T00:49:18.042Z,12.80
2022-10-08T00:51:19.973Z,18.97
2022-10-08T00:53:21.948Z,20.03
2022-10-08T00:55:27.998Z,13.40
2022-10-08T00:57:30.232Z,11.50
2022-10-08T00:59:32.233Z,12.50
2022-10-08T01:01:34.825Z,14.20
2022-10-08T01:03:36.848Z,13.20
2022-10-08T01:05:56.843Z,16.77
2022-10-08T01:08:16.647Z,12.67
2022-10-08T01:10:26.534Z,14.83
2022-10-08T01:12:41.577Z,14.00
2022-10-08T01:15:01.693Z,13.53
2022-10-08T01:17:28.489Z,12.57
2022-10-08T01:20:21.623Z,10.67
2022-10-08T01:22:38.870Z,12.03
2022-10-08T01:25:09.906Z,21.43
2022-10-08T01:27:24.118Z,14.27
2022-10-08T01:29:25.980Z,15.73
2022-10-08T01:31:35.030Z,12.00
2022-10-08T01:33:45.202Z,15.47
2022-10-08T01:35:51.279Z,15.43
2022-10-08T01:37:56.052Z,19.13
2022-10-08T01:40:01.039Z,15.90
2022-10-08T01:42:06.060Z,12.03
2022-10-08T01:44:16.859Z,11.60
2022-10-08T01:46:26.478Z,17.37
2022-10-08T01:48:32.719Z,11.33
2022-10-08T01:50:50.829Z,13.10
2022-10-08T01:52:56.015Z,20.30
2022-10-08T01:55:01.191Z,10.87
2022-10-08T01:57:05.758Z,16.60
2022-10-08T01:59:14.596Z,15.80
2022-10-08T02:01:23.504Z,12.50
2022-10-08T02:03:25.542Z,17.67
2022-10-08T02:05:32.036Z,15.57
2022-10-08T02:07:37.952Z,15.43
2022-10-08T02:09:43.109Z,17.93
2022-10-08T02:11:45.165Z,14.93
2022-10-08T02:13:47.096Z,15.03
2022-10-08T02:16:11.824Z,15.40
2022-10-08T02:18:18.192Z,11.70
2022-10-08T02:20:31.921Z,15.63
2022-10-08T02:22:52.083Z,12.17
2022-10-08T02:25:24.575Z,11.90
2022-10-08T02:27:30.398Z,16.83
2022-10-08T02:29:45.563Z,19.50
2022-10-08T02:31:51.008Z,12.53
2022-10-08T02:34:23.818Z,15.17
2022-10-08T02:36:33.042Z,16.80
2022-10-08T02:38:39.207Z,17.33
2022-10-08T02:40:43.630Z,16.97
2022-10-08T02:42:50.451Z,13.13
2022-10-08T02:44:57.806Z,14.33
2022-10-08T02:47:01.682Z,17.63
2022-10-08T02:49:08.494Z,13.93
2022-10-08T02:51:13.575Z,12.90
2022-10-08T02:53:18.340Z,16.30
2022-10-08T02:55:49.913Z,13.57
2022-10-08T02:57:58.704Z,15.80
2022-10-08T03:00:00.915Z,12.30
2022-10-08T03:02:05.049Z,12.77
2022-10-08T03:04:13.174Z,12.33
2022-10-08T03:06:15.938Z,17.10
2022-10-08T03:08:18.002Z,10.97
2022-10-08T03:10:20.124Z,17.10
2022-10-08T03:12:22.230Z,13.53
2022-10-08T03:14:25.226Z,14.70
2022-10-08T03:16:34.119Z,12.63
2022-10-08T03:18:38.137Z,12.47
2022-10-08T03:20:45.920Z,13.73
2022-10-08T03:22:48.097Z,13.97
2022-10-08T03:24:52.718Z,14.27
2022-10-08T03:26:58.121Z,14.20
2022-10-08T03:29:00.094Z,12.07
2022-10-08T03:31:05.839Z,15.33
2022-10-08T03:33:07.927Z,16.40
2022-10-08T03:35:09.855Z,13.20
2022-10-08T03:37:11.746Z,19.50
2022-10-08T03:39:13.755Z,19.10
2022-10-08T03:41:15.973Z,15.03
2022-10-08T03:43:17.915Z,14.57
2022-10-08T03:45:19.905Z,20.73
2022-10-08T03:47:21.846Z,14.90
2022-10-08T03:49:23.776Z,12.00
2022-10-08T03:51:25.747Z,16.80
2022-10-08T03:53:28.351Z,14.07
2022-10-08T03:55:30.304Z,17.20
2022-10-08T03:57:32.215Z,19.93
2022-10-08T03:59:34.186Z,12.83
2022-10-08T04:01:36.178Z,13.07
2022-10-08T04:03:38.428Z,13.00
2022-10-08T04:05:48.983Z,15.47
2022-10-08T04:07:50.903Z,17.37
2022-10-08T04:09:52.839Z,18.67
2022-10-08T04:11:54.774Z,16.30
2022-10-08T04:13:56.710Z,17.93
2022-10-08T04:16:07.171Z,12.90
2022-10-08T04:18:12.749Z,13.90
2022-10-08T04:20:14.696Z,18.30
2022-10-08T04:22:16.750Z,27.37
2022-10-08T04:24:18.835Z,16.50
2022-10-08T04:26:20.962Z,16.80
2022-10-08T04:28:23.251Z,12.87
2022-10-08T04:30:25.455Z,13.57
2022-10-08T04:32:27.795Z,18.47
2022-10-08T04:34:29.964Z,21.00
2022-10-08T04:36:32.160Z,16.80
2022-10-08T04:38:34.126Z,14.40
2022-10-08T04:40:36.105Z,14.87
2022-10-08T04:42:38.116Z,15.37
2022-10-08T04:44:40.134Z,15.60
2022-10-08T04:46:42.194Z,17.43
2022-10-08T04:48:48.830Z,15.27
2022-10-08T04:50:55.603Z,21.57
2022-10-08T04:52:57.621Z,16.30
2022-10-08T04:54:59.538Z,17.77
2022-10-08T04:57:01.614Z,20.30
2022-10-08T04:59:04.127Z,16.10
2022-10-08T05:01:06.951Z,15.90
2022-10-08T05:03:09.133Z,20.93
2022-10-08T05:05:11.134Z,15.67
2022-10-08T05:07:13.106Z,17.77
2022-10-08T05:09:15.086Z,15.60
2022-10-08T05:11:18.432Z,14.53
2022-10-08T05:13:20.361Z,16.37
2022-10-08T05:15:22.272Z,16.03
2022-10-08T05:17:24.204Z,18.10
2022-10-08T05:19:26.392Z,18.23
2022-10-08T05:21:30.006Z,19.60
2022-10-08T05:23:32.291Z,17.40
2022-10-08T05:25:35.137Z,16.67
2022-10-08T05:27:37.142Z,22.30
2022-10-08T05:29:39.156Z,19.30
2022-10-08T05:31:41.140Z,24.33
2022-10-08T05:33:43.413Z,23.90
2022-10-08T05:35:45.377Z,18.60
2022-10-08T05:37:47.521Z,26.20
2022-10-08T05:39:49.646Z,16.80
2022-10-08T05:41:51.892Z,21.17
2022-10-08T05:43:54.906Z,17.57
2022-10-08T05:45:56.792Z,20.20
2022-10-08T05:47:58.680Z,27.10
2022-10-08T05:50:00.683Z,18.70
2022-10-08T05:52:02.690Z,19.97
2022-10-08T05:54:04.691Z,20.90
2022-10-08T05:56:08.990Z,21.33
2022-10-08T05:58:10.875Z,21.70
2022-10-08T06:00:13.759Z,19.47
2022-10-08T06:02:15.661Z,19.60
2022-10-08T06:04:20.915Z,20.40
2022-10-08T06:06:23.843Z,17.60
2022-10-08T06:08:25.798Z,27.53
2022-10-08T06:10:27.929Z,20.50
2022-10-08T06:12:29.919Z,23.50
2022-10-08T06:14:31.887Z,19.70
2022-10-08T06:16:34.615Z,23.30
2022-10-08T06:18:39.586Z,25.17
2022-10-08T06:20:41.583Z,29.93
2022-10-08T06:22:43.503Z,21.57
2022-10-08T06:24:45.754Z,23.47
2022-10-08T06:26:47.733Z,28.70
2022-10-08T06:28:49.993Z,24.30
2022-10-08T06:30:51.885Z,23.40
2022-10-08T06:32:53.857Z,16.43
2022-10-08T06:34:55.883Z,19.00
2022-10-08T06:36:57.845Z,20.50
2022-10-08T06:39:01.667Z,15.40
2022-10-08T06:41:03.592Z,21.47
2022-10-08T06:43:12.803Z,16.50
2022-10-08T06:45:14.819Z,11.30
2022-10-08T06:47:16.851Z,12.47
2022-10-08T06:49:19.543Z,14.07
2022-10-08T06:51:21.496Z,15.53
2022-10-08T06:53:23.583Z,19.40
2022-10-08T06:55:25.507Z,21.87
2022-10-08T06:57:27.742Z,11.20
2022-10-08T06:59:29.658Z,15.10
2022-10-08T07:01:33.784Z,10.20
2022-10-08T07:03:36.803Z,15.40
2022-10-08T07:05:38.925Z,11.50
2022-10-08T07:07:40.854Z,11.70
2022-10-08T07:09:42.775Z,11.83
2022-10-08T07:11:44.852Z,12.20
2022-10-08T07:13:47.277Z,13.90
2022-10-08T07:15:49.303Z,8.23
2022-10-08T07:17:51.318Z,12.33
2022-10-08T07:19:53.327Z,11.83
2022-10-08T07:22:00.409Z,16.10
2022-10-08T07:24:03.420Z,12.53
2022-10-08T07:26:10.111Z,16.10
2022-10-08T07:28:12.108Z,16.73
2022-10-08T07:30:14.154Z,15.03
2022-10-08T07:32:16.175Z,17.53
2022-10-08T07:34:18.207Z,12.03
2022-10-08T07:36:21.366Z,13.43
2022-10-08T07:38:23.351Z,8.13
2022-10-08T07:40:25.412Z,10.90
2022-10-08T07:42:27.358Z,8.87
2022-10-08T07:44:29.294Z,10.13
2022-10-08T07:46:33.379Z,10.73
2022-10-08T07:48:36.219Z,18.73
2022-10-08T07:50:38.187Z,11.90
2022-10-08T07:52:40.103Z,10.97
2022-10-08T07:54:42.697Z,7.03
2022-10-08T07:56:45.315Z,11.30
2022-10-08T07:58:47.686Z,6.47
2022-10-08T08:00:49.763Z,8.53
2022-10-08T08:02:51.689Z,8.07
2022-10-08T08:04:53.732Z,7.97
2022-10-08T08:06:55.706Z,12.83
2022-10-08T08:08:59.790Z,7.70
2022-10-08T08:11:03.332Z,6.93
2022-10-08T08:13:05.415Z,10.03
2022-10-08T08:15:07.820Z,8.67
2022-10-08T08:17:09.988Z,9.50
2022-10-08T08:19:11.945Z,11.03
2022-10-08T08:21:19.228Z,10.30
2022-10-08T08:23:21.164Z,6.57
2022-10-08T08:25:23.082Z,10.23
2022-10-08T08:27:25.061Z,10.43
2022-10-08T08:29:27.069Z,6.73
2022-10-08T08:31:31.754Z,11.23
2022-10-08T08:33:33.768Z,9.73
2022-10-08T08:35:35.708Z,10.47
2022-10-08T08:37:37.632Z,11.53
2022-10-08T08:39:39.587Z,7.40
2022-10-08T08:42:19.200Z,6.63
2022-10-08T08:44:23.818Z,8.60
2022-10-08T08:46:26.092Z,8.93
2022-10-08T08:48:33.120Z,9.83
2022-10-08T08:50:37.166Z,9.33
2022-10-08T08:52:40.806Z,12.00
2022-10-08T08:54:45.890Z,8.70
2022-10-08T08:56:48.229Z,7.67
2022-10-08T08:58:58.658Z,9.20
2022-10-08T09:01:12.320Z,7.37
2022-10-08T09:03:20.898Z,13.83
2022-10-08T09:05:25.047Z,7.47
2022-10-08T09:07:30.987Z,8.97
2022-10-08T09:09:53.295Z,10.10
2022-10-08T09:11:55.491Z,10.70
2022-10-08T09:14:09.399Z,7.10
2022-10-08T09:16:12.761Z,10.37
2022-10-08T09:18:16.648Z,6.60
2022-10-08T09:20:22.885Z,7.40
2022-10-08T09:22:45.757Z,7.97
2022-10-08T09:24:51.238Z,10.20
2022-10-08T09:26:53.787Z,11.37
2022-10-08T09:28:57.561Z,10.33
2022-10-08T09:31:23.250Z,11.83
2022-10-08T09:33:29.585Z,13.87
2022-10-08T09:35:32.964Z,8.20
2022-10-08T09:37:35.170Z,8.30
2022-10-08T09:39:38.313Z,8.50
2022-10-08T09:41:40.282Z,10.53
2022-10-08T09:43:42.693Z,7.50
2022-10-08T09:45:49.270Z,14.37
2022-10-08T09:48:16.616Z,8.27
2022-10-08T09:50:19.769Z,8.17
2022-10-08T09:52:25.898Z,7.97
2022-10-08T09:54:30.782Z,6.97
2022-10-08T09:56:33.865Z,7.67
2022-10-08T09:58:48.156Z,7.60
2022-10-08T10:01:14.336Z,9.87
2022-10-08T10:03:17.780Z,6.47
2022-10-08T10:05:25.220Z,9.67
2022-10-08T10:07:44.645Z,6.63
2022-10-08T10:09:51.332Z,7.07
2022-10-08T10:11:56.827Z,6.77
2022-10-08T10:14:01.424Z,8.27
2022-10-08T10:16:15.928Z,11.67
2022-10-08T10:18:23.905Z,5.90
2022-10-08T10:20:38.249Z,5.27
2022-10-08T10:22:57.004Z,9.53
2022-10-08T10:25:06.471Z,8.80
2022-10-08T10:27:35.174Z,5.07
2022-10-08T10:30:02.380Z,7.67
2022-10-08T10:32:14.562Z,7.00
2022-10-08T10:34:21.662Z,11.03
2022-10-08T10:36:27.134Z,10.53
2022-10-08T10:38:30.637Z,5.37
2022-10-08T10:40:39.831Z,6.20
2022-10-08T10:43:08.002Z,5.17
2022-10-08T10:45:18.753Z,4.07
2022-10-08T10:47:24.064Z,11.20
2022-10-08T10:49:38.196Z,6.03
2022-10-08T10:51:50.199Z,8.20
2022-10-08T10:54:29.997Z,4.90
2022-10-08T10:56:38.727Z,4.20
2022-10-08T10:58:45.156Z,6.30
2022-10-08T11:01:08.767Z,6.40
2022-10-08T11:03:22.077Z,2.60
2022-10-08T11:05:26.663Z,2.23
2022-10-08T11:07:48.829Z,5.50
2022-10-08T11:09:55.541Z,3.70
2022-10-08T11:12:15.112Z,3.03
2022-10-08T11:14:20.104Z,5.17
2022-10-08T11:16:40.270Z,5.87
2022-10-08T11:18:53.620Z,2.30
2022-10-08T11:21:18.717Z,3.60
2022-10-08T11:23:44.037Z,3.43
2022-10-08T11:26:16.449Z,1.87
2022-10-08T11:28:35.863Z,1.53
2022-10-08T11:31:08.293Z,3.60
2022-10-08T11:33:13.665Z,6.70
2022-10-08T11:35:19.944Z,1.73
2022-10-08T11:37:28.005Z,1.67
2022-10-08T11:39:56.796Z,5.60
2022-10-08T11:42:06.164Z,4.23
2022-10-08T11:44:10.702Z,7.83
2022-10-08T11:46:30.776Z,3.20
2022-10-08T11:48:34.588Z,2.93
2022-10-08T11:50:37.392Z,1.80
2022-10-08T11:52:39.475Z,3.43
2022-10-08T11:54:42.597Z,3.70
2022-10-08T11:56:47.086Z,3.50
2022-10-08T11:58:53.175Z,3.87
2022-10-08T12:01:04.148Z,2.87
2022-10-08T12:03:27.495Z,3.33
2022-10-08T12:05:35.402Z,4.70
2022-10-08T12:07:38.568Z,6.27
2022-10-08T12:10:05.223Z,6.70
2022-10-08T12:12:13.767Z,2.10
2022-10-08T12:14:16.862Z,5.03
2022-10-08T12:16:18.832Z,3.37
2022-10-08T12:18:25.862Z,1.63
2022-10-08T12:20:30.845Z,3.30
2022-10-08T12:22:32.689Z,3.87
2022-10-08T12:24:37.456Z,4.40
2022-10-08T12:27:17.477Z,2.90
2022-10-08T12:29:59.330Z,5.57
2022-10-08T12:32:02.237Z,3.37
2022-10-08T12:34:14.253Z,4.80
2022-10-08T12:36:22.619Z,3.47
2022-10-08T12:38:56.076Z,4.80
2022-10-08T12:41:04.915Z,8.03
2022-10-08T12:43:15.919Z,5.37
2022-10-08T12:45:21.789Z,5.97
2022-10-08T12:47:39.432Z,4.47
2022-10-08T12:49:48.744Z,6.43
2022-10-08T12:51:59.529Z,2.63
2022-10-08T12:54:04.648Z,6.40
2022-10-08T12:56:06.621Z,4.93
2022-10-08T12:58:18.317Z,9.20
2022-10-08T13:00:21.633Z,4.40
2022-10-08T13:02:40.827Z,10.60
2022-10-08T13:04:46.378Z,6.23
2022-10-08T13:06:50.006Z,9.27
2022-10-08T13:08:52.392Z,7.03
2022-10-08T13:10:55.342Z,5.60
2022-10-08T13:13:00.062Z,1.97
2022-10-08T13:15:10.862Z,10.53
2022-10-08T13:17:30.804Z,4.00
2022-10-08T13:19:38.272Z,3.70
2022-10-08T13:21:40.220Z,2.83
2022-10-08T13:23:43.927Z,5.57
2022-10-08T13:25:45.878Z,4.20
2022-10-08T13:28:07.391Z,10.90
2022-10-08T13:30:27.958Z,10.43
2022-10-08T13:32:35.046Z,3.10
2022-10-08T13:34:43.044Z,4.70
2022-10-08T13:36:54.187Z,4.77
2022-10-08T13:38:56.138Z,6.07
2022-10-08T13:41:00.018Z,5.80
2022-10-08T13:43:02.102Z,9.03
2022-10-08T13:45:05.301Z,5.80
2022-10-08T13:47:12.623Z,10.70
2022-10-08T13:49:25.738Z,5.30
2022-10-08T13:51:27.744Z,6.50
2022-10-08T13:53:30.942Z,7.87
2022-10-08T13:55:34.572Z,11.07
2022-10-08T13:57:36.581Z,9.50
2022-10-08T13:59:38.531Z,20.73
2022-10-08T14:01:40.555Z,5.67
2022-10-08T14:03:42.562Z,7.80
2022-10-08T14:05:46.576Z,6.43
2022-10-08T14:07:51.146Z,5.23
2022-10-08T14:09:53.415Z,9.97
2022-10-08T14:11:56.999Z,6.80
2022-10-08T14:13:58.924Z,7.60
2022-10-08T14:16:00.873Z,4.20
2022-10-08T14:18:02.843Z,4.10
2022-10-08T14:20:05.203Z,4.73
2022-10-08T14:22:07.274Z,3.47
2022-10-08T14:24:10.811Z,5.00
2022-10-08T14:26:13.152Z,6.67
2022-10-08T14:28:15.278Z,8.13
2022-10-08T14:30:18.089Z,4.17
2022-10-08T14:32:20.004Z,6.80
2022-10-08T14:34:21.919Z,8.10
2022-10-08T14:36:32.954Z,3.07
2022-10-08T14:38:36.073Z,7.77
2022-10-08T14:40:39.013Z,2.90
2022-10-08T14:42:41.107Z,5.50
2022-10-08T14:44:43.051Z,8.43
2022-10-08T14:46:45.139Z,3.83
2022-10-08T14:48:47.044Z,3.77
2022-10-08T14:50:48.997Z,2.00
2022-10-08T14:52:51.977Z,6.37
2022-10-08T14:54:54.003Z,5.40
2022-10-08T14:56:55.988Z,7.00
2022-10-08T14:58:57.922Z,5.60
2022-10-08T15:00:59.959Z,2.90
2022-10-08T15:03:01.893Z,4.80
2022-10-08T15:05:04.044Z,3.60
2022-10-08T15:07:06.258Z,4.67
2022-10-08T15:09:10.782Z,5.10
2022-10-08T15:11:12.838Z,3.60
2022-10-08T15:13:14.796Z,5.30
2022-10-08T15:15:19.739Z,4.43
2022-10-08T15:17:23.187Z,4.43
2022-10-08T15:19:25.177Z,2.53
2022-10-08T15:21:27.166Z,6.43
2022-10-08T15:23:29.268Z,6.97
2022-10-08T15:25:31.430Z,2.23
2022-10-08T15:27:33.357Z,4.80
2022-10-08T15:29:36.071Z,4.60
2022-10-08T15:31:38.010Z,4.70
2022-10-08T15:33:47.151Z,7.67
2022-10-08T15:35:49.066Z,4.43
2022-10-08T15:37:51.069Z,3.63
2022-10-08T15:39:53.012Z,4.90
2022-10-08T15:41:55.332Z,3.03
2022-10-08T15:44:07.603Z,2.50
2022-10-08T15:46:11.708Z,17.03
2022-10-08T15:48:14.135Z,1.87
2022-10-08T15:50:16.379Z,3.13
2022-10-08T15:52:21.122Z,4.10
2022-10-08T15:54:23.130Z,5.13
2022-10-08T15:56:25.499Z,5.47
2022-10-08T15:58:49.321Z,2.33
2022-10-08T16:00:51.719Z,2.93
2022-10-08T16:02:55.267Z,4.63
2022-10-08T16:04:57.438Z,3.40
2022-10-08T16:06:59.703Z,3.67
2022-10-08T16:09:02.275Z,4.50
2022-10-08T16:11:18.367Z,4.30
2022-10-08T16:13:20.312Z,2.63
2022-10-08T16:15:22.529Z,10.00
2022-10-08T16:17:26.458Z,3.80
2022-10-08T16:19:28.870Z,3.20
2022-10-08T16:21:32.573Z,4.90
2022-10-08T16:23:37.049Z,6.17
2022-10-08T16:25:43.515Z,6.37
2022-10-08T16:27:47.757Z,6.33
2022-10-08T16:29:50.006Z,5.50
2022-10-08T16:31:52.076Z,3.03
2022-10-08T16:34:01.770Z,3.13
2022-10-08T16:36:05.635Z,5.63
2022-10-08T16:38:07.705Z,10.40
2022-10-08T16:40:10.211Z,6.93
2022-10-08T16:42:12.169Z,4.93
2022-10-08T16:44:15.991Z,4.07
2022-10-08T16:46:25.853Z,3.30
2022-10-08T16:48:27.830Z,2.53
2022-10-08T16:50:29.962Z,1.80
2022-10-08T16:52:31.931Z,4.97
2022-10-08T16:54:34.010Z,2.03
2022-10-08T16:56:38.300Z,6.60
2022-10-08T16:58:40.255Z,3.80
2022-10-08T17:00:42.218Z,5.00
2022-10-08T17:02:44.215Z,5.07
2022-10-08T17:04:46.217Z,4.57
2022-10-08T17:06:48.494Z,5.53
2022-10-08T17:08:51.603Z,7.17
2022-10-08T17:10:53.647Z,8.83
2022-10-08T17:12:55.643Z,10.10
2022-10-08T17:14:57.631Z,11.27
2022-10-08T17:16:59.615Z,8.13
2022-10-08T17:19:02.328Z,11.80
2022-10-08T17:21:05.385Z,9.77
2022-10-08T17:23:07.364Z,8.63
2022-10-08T17:25:09.582Z,6.37
2022-10-08T17:27:13.376Z,15.60
2022-10-08T17:29:15.365Z,11.50
2022-10-08T17:31:22.834Z,8.40
2022-10-08T17:33:26.065Z,7.13
2022-10-08T17:35:28.004Z,9.40
2022-10-08T17:37:30.045Z,10.10
2022-10-08T17:39:32.670Z,9.20
2022-10-08T17:41:39.322Z,12.73
2022-10-08T17:43:41.925Z,12.30
2022-10-08T17:45:43.974Z,14.13
2022-10-08T17:47:45.915Z,13.60
2022-10-08T17:49:47.854Z,10.77
2022-10-08T17:51:51.019Z,12.37
2022-10-08T17:53:55.014Z,10.60
2022-10-08T17:55:58.745Z,11.40
2022-10-08T17:58:00.807Z,9.03
2022-10-08T18:00:03.209Z,9.83
2022-10-08T18:02:10.979Z,7.70
2022-10-08T18:04:14.340Z,10.07
2022-10-08T18:06:16.255Z,8.13
2022-10-08T18:08:19.067Z,11.60
2022-10-08T18:10:21.055Z,6.47
2022-10-08T18:12:23.045Z,7.30
2022-10-08T18:14:24.937Z,4.13
2022-10-08T18:16:26.878Z,7.00
2022-10-08T18:18:28.818Z,3.07
2022-10-08T18:20:30.754Z,4.90
2022-10-08T18:22:32.698Z,9.80
2022-10-08T18:24:34.819Z,7.73
2022-10-08T18:26:37.108Z,4.33
2022-10-08T18:28:39.285Z,6.73
2022-10-08T18:30:41.343Z,4.70
2022-10-08T18:32:43.380Z,9.77
2022-10-08T18:34:45.494Z,11.60
2022-10-08T18:36:47.958Z,8.00
2022-10-08T18:38:57.878Z,15.00
2022-10-08T18:41:01.414Z,9.47
2022-10-08T18:43:03.635Z,7.07
2022-10-08T18:45:06.003Z,9.37
2022-10-08T18:47:07.921Z,9.80
2022-10-08T18:49:13.016Z,5.63
2022-10-08T18:51:22.412Z,11.10
2022-10-08T18:53:24.421Z,6.73
2022-10-08T18:55:26.311Z,5.23
2022-10-08T18:57:28.379Z,4.70
2022-10-08T18:59:32.044Z,11.27
2022-10-08T19:01:35.858Z,10.17
2022-10-08T19:03:37.896Z,5.80
2022-10-08T19:05:39.864Z,4.80
2022-10-08T19:07:41.845Z,5.93
2022-10-08T19:09:43.864Z,5.83
2022-10-08T19:11:51.009Z,10.07
2022-10-08T19:13:53.869Z,12.10
2022-10-08T19:15:55.882Z,9.93
2022-10-08T19:17:57.856Z,10.87
2022-10-08T19:19:59.736Z,5.23
2022-10-08T19:22:01.821Z,6.80
2022-10-08T19:24:04.331Z,7.93
2022-10-08T19:26:06.813Z,5.63
2022-10-08T19:28:08.795Z,7.70
2022-10-08T19:30:10.987Z,6.97
2022-10-08T19:32:12.971Z,4.13
2022-10-08T19:34:19.837Z,10.43
2022-10-08T19:36:22.838Z,5.70
2022-10-08T19:38:24.735Z,5.67
2022-10-08T19:40:26.740Z,5.97
2022-10-08T19:42:28.670Z,14.93
2022-10-08T19:44:30.727Z,7.80
2022-10-08T19:46:33.061Z,6.80
2022-10-08T19:48:35.021Z,9.50
2022-10-08T19:50:37.150Z,9.07
2022-10-08T19:52:39.107Z,11.10
2022-10-08T19:54:42.019Z,8.23
2022-10-08T19:56:43.941Z,8.70
2022-10-08T19:58:48.639Z,6.93
2022-10-08T20:01:20.997Z,5.83
2022-10-08T20:03:22.980Z,6.50
2022-10-08T20:05:24.935Z,3.40
2022-10-08T20:07:26.907Z,6.17
2022-10-08T20:09:30.621Z,5.27
2022-10-08T20:11:33.060Z,4.60
2022-10-08T20:13:35.395Z,8.23
2022-10-08T20:15:38.010Z,6.07
2022-10-08T20:17:39.948Z,4.50
2022-10-08T20:19:41.880Z,5.77
2022-10-08T20:21:44.145Z,4.33
2022-10-08T20:23:46.214Z,4.30
2022-10-08T20:25:48.231Z,6.33
2022-10-08T20:27:50.867Z,6.33
2022-10-08T20:29:52.988Z,10.80
2022-10-08T20:31:55.394Z,6.20
2022-10-08T20:33:59.431Z,5.30
2022-10-08T20:36:01.495Z,10.63
2022-10-08T20:38:03.596Z,5.13
2022-10-08T20:40:06.051Z,3.53
2022-10-08T20:42:08.009Z,4.63
2022-10-08T20:44:09.987Z,5.37
2022-10-08T20:46:13.991Z,7.13
2022-10-08T20:48:16.002Z,5.50
2022-10-08T20:50:17.958Z,6.30
2022-10-08T20:52:19.868Z,4.00
2022-10-08T20:54:21.861Z,5.10
2022-10-08T20:56:24.757Z,5.67
2022-10-08T20:58:26.795Z,3.37
2022-10-08T21:00:28.789Z,4.70
2022-10-08T21:02:30.802Z,3.13
2022-10-08T21:04:32.785Z,10.10
2022-10-08T21:06:43.302Z,14.60
2022-10-08T21:08:47.366Z,9.80
2022-10-08T21:10:49.318Z,6.33
2022-10-08T21:12:51.306Z,9.73
2022-10-08T21:14:53.247Z,4.53
2022-10-08T21:16:55.174Z,9.60
2022-10-08T21:19:02.189Z,4.20
2022-10-08T21:21:06.120Z,4.90
2022-10-08T21:23:08.060Z,5.63
2022-10-08T21:25:09.974Z,9.20
2022-10-08T21:27:11.898Z,11.10
2022-10-08T21:29:14.433Z,8.30
2022-10-08T21:31:18.530Z,7.20
2022-10-08T21:33:20.541Z,7.83
2022-10-08T21:35:22.452Z,5.80
2022-10-08T21:37:24.433Z,4.50
2022-10-08T21:39:26.310Z,3.23
2022-10-08T21:41:30.632Z,6.37
2022-10-08T21:43:32.659Z,5.27
2022-10-08T21:45:34.707Z,6.20
2022-10-08T21:47:36.730Z,8.60
2022-10-08T21:49:38.713Z,5.83
2022-10-08T21:51:41.226Z,7.70
2022-10-08T21:53:48.262Z,6.33
2022-10-08T21:56:01.496Z,10.17
2022-10-08T21:58:03.459Z,7.77
2022-10-08T22:00:11.293Z,4.70
2022-10-08T22:02:14.991Z,3.73
2022-10-08T22:04:20.007Z,6.60
2022-10-08T22:06:22.490Z,3.93
2022-10-08T22:08:26.480Z,4.07
2022-10-08T22:10:28.469Z,5.00
2022-10-08T22:12:30.413Z,7.97
2022-10-08T22:14:32.339Z,9.97
2022-10-08T22:16:34.772Z,5.53
2022-10-08T22:18:36.796Z,11.97
2022-10-08T22:20:38.719Z,9.47
2022-10-08T22:22:40.651Z,8.03
2022-10-08T22:24:42.607Z,6.77
2022-10-08T22:26:46.623Z,7.40
2022-10-08T22:28:49.146Z,4.87
2022-10-08T22:30:51.724Z,9.17
2022-10-08T22:32:53.647Z,3.63
2022-10-08T22:34:55.620Z,6.60
2022-10-08T22:36:57.532Z,6.60
2022-10-08T22:38:59.821Z,6.93
2022-10-08T22:41:10.827Z,5.43
2022-10-08T22:43:12.765Z,11.20
2022-10-08T22:45:14.757Z,4.70
2022-10-08T22:47:16.693Z,6.23
2022-10-08T22:49:18.666Z,6.80
2022-10-08T22:51:21.839Z,8.40
2022-10-08T22:53:23.782Z,8.63
2022-10-08T22:55:25.671Z,5.87
2022-10-08T22:57:27.632Z,7.00
2022-10-08T22:59:30.469Z,6.30
2022-10-08T23:01:32.524Z,5.10
2022-10-08T23:03:35.694Z,6.03
2022-10-08T23:05:37.792Z,5.07
2022-10-08T23:07:39.747Z,5.20
2022-10-08T23:09:42.184Z,4.73
2022-10-08T23:11:44.095Z,6.07
2022-10-08T23:13:50.200Z,6.90
2022-10-08T23:16:09.838Z,4.17
2022-10-08T23:18:11.803Z,6.13
2022-10-08T23:20:13.795Z,5.43
2022-10-08T23:22:15.760Z,6.53
2022-10-08T23:24:17.688Z,5.30
2022-10-08T23:26:19.922Z,10.23
2022-10-08T23:28:22.378Z,9.60
2022-10-08T23:30:42.083Z,7.47
2022-10-08T23:32:44.830Z,5.70
2022-10-08T23:34:46.814Z,4.20
2022-10-08T23:36:48.730Z,5.50
2022-10-08T23:38:50.845Z,6.73
2022-10-08T23:40:52.843Z,5.90
2022-10-08T23:42:54.781Z,7.00
2022-10-08T23:44:56.703Z,4.83
2022-10-08T23:46:58.650Z,6.30
2022-10-08T23:49:01.099Z,6.33
2022-10-08T23:51:03.575Z,18.67
2022-10-08T23:53:06.049Z,7.67
2022-10-08T23:55:08.408Z,6.13
2022-10-08T23:57:10.391Z,7.50
2022-10-08T23:59:12.339Z,5.97
